createdAt,value
2023-05-14T00:00:34.414Z,606.10
2023-05-14T00:01:34.420Z,268.70
2023-05-14T00:02:34.479Z,225.00
2023-05-14T00:03:34.417Z,745.90
2023-05-14T00:04:34.438Z,249.10
2023-05-14T00:05:34.366Z,710.80
2023-05-14T00:06:34.376Z,251.10
2023-05-14T00:07:34.311Z,493.90
2023-05-14T00:08:34.310Z,275.20
2023-05-14T00:09:34.278Z,320.70
2023-05-14T00:10:34.292Z,285.40
2023-05-14T00:11:34.311Z,233.70
2023-05-14T00:12:34.260Z,646.30
2023-05-14T00:13:34.254Z,332.30
2023-05-14T00:14:34.251Z,283.00
2023-05-14T00:15:34.627Z,443.40
2023-05-14T00:16:34.308Z,234.00
2023-05-14T00:17:34.224Z,512.20
2023-05-14T00:18:34.261Z,235.90
2023-05-14T00:19:34.181Z,775.20
2023-05-14T00:20:34.213Z,230.20
2023-05-14T00:21:34.172Z,677.60
2023-05-14T00:22:34.150Z,237.00
2023-05-14T00:23:34.146Z,587.20
2023-05-14T00:24:34.113Z,475.70
2023-05-14T00:25:34.150Z,539.60
2023-05-14T00:26:34.100Z,230.80
2023-05-14T00:27:34.080Z,373.50
2023-05-14T00:28:34.084Z,231.80
2023-05-14T00:29:34.114Z,511.20
2023-05-14T00:30:34.093Z,480.80
2023-05-14T00:31:34.080Z,473.30
2023-05-14T00:32:34.124Z,494.70
2023-05-14T00:33:34.013Z,535.00
2023-05-14T00:34:34.055Z,557.70
2023-05-14T00:35:34.004Z,570.30
2023-05-14T00:36:33.985Z,201.70
2023-05-14T00:37:33.983Z,222.10
2023-05-14T00:38:33.968Z,588.90
2023-05-14T00:39:33.980Z,231.90
2023-05-14T00:40:33.946Z,608.40
2023-05-14T00:41:33.916Z,501.10
2023-05-14T00:42:33.908Z,507.30
2023-05-14T00:43:33.933Z,515.90
2023-05-14T00:44:33.942Z,517.50
2023-05-14T00:45:33.873Z,523.20
2023-05-14T00:46:33.930Z,511.60
2023-05-14T00:47:33.916Z,510.10
2023-05-14T00:48:33.870Z,594.50
2023-05-14T00:49:33.839Z,640.90
2023-05-14T00:50:33.826Z,641.50
2023-05-14T00:51:33.851Z,627.70
2023-05-14T00:52:33.797Z,619.10
2023-05-14T00:53:33.813Z,629.30
2023-05-14T00:54:33.783Z,620.20
2023-05-14T00:55:33.771Z,668.50
2023-05-14T00:56:33.770Z,671.20
2023-05-14T00:57:33.788Z,579.20
2023-05-14T00:58:33.776Z,647.40
2023-05-14T00:59:33.727Z,602.60
2023-05-14T01:00:33.786Z,581.60
2023-05-14T01:01:33.735Z,563.10
2023-05-14T01:02:33.788Z,549.60
2023-05-14T01:03:33.759Z,583.70
2023-05-14T01:04:33.672Z,596.60
2023-05-14T01:05:33.654Z,541.40
2023-05-14T01:06:33.662Z,591.30
2023-05-14T01:07:33.681Z,564.30
2023-05-14T01:08:33.618Z,545.40
2023-05-14T01:09:33.611Z,534.40
2023-05-14T01:10:33.591Z,535.40
2023-05-14T01:11:33.619Z,543.30
2023-05-14T01:12:33.631Z,539.70
2023-05-14T01:13:33.566Z,548.70
2023-05-14T01:14:33.556Z,553.50
2023-05-14T01:15:33.607Z,550.00
2023-05-14T01:16:33.635Z,551.60
2023-05-14T01:17:33.560Z,550.40
2023-05-14T01:18:33.580Z,546.60
2023-05-14T01:19:33.483Z,552.60
2023-05-14T01:20:33.544Z,560.00
2023-05-14T01:21:33.528Z,571.90
2023-05-14T01:22:33.465Z,579.00
2023-05-14T01:23:33.462Z,585.60
2023-05-14T01:24:33.451Z,593.60
2023-05-14T01:25:33.475Z,591.10
2023-05-14T01:26:33.455Z,575.90
2023-05-14T01:27:33.447Z,564.60
2023-05-14T01:28:33.437Z,555.30
2023-05-14T01:29:33.376Z,576.60
2023-05-14T01:30:33.399Z,588.50
2023-05-14T01:31:33.384Z,601.80
2023-05-14T01:32:33.378Z,604.50
2023-05-14T01:33:33.333Z,582.10
2023-05-14T01:34:33.364Z,571.40
2023-05-14T01:35:33.362Z,572.80
2023-05-14T01:36:33.303Z,563.00
2023-05-14T01:37:33.328Z,560.30
2023-05-14T01:38:33.279Z,550.00
2023-05-14T01:39:33.294Z,544.60
2023-05-14T01:40:33.255Z,541.70
2023-05-14T01:41:33.253Z,531.60
2023-05-14T01:42:33.244Z,557.10
2023-05-14T01:43:33.287Z,572.30
2023-05-14T01:44:33.251Z,571.60
2023-05-14T01:45:33.189Z,572.60
2023-05-14T01:46:33.281Z,557.60
2023-05-14T01:47:33.214Z,545.90
2023-05-14T01:48:33.203Z,540.30
2023-05-14T01:49:33.190Z,549.70
2023-05-14T01:50:33.164Z,559.90
2023-05-14T01:51:33.130Z,546.30
2023-05-14T01:52:33.120Z,536.90
2023-05-14T01:53:33.135Z,543.40
2023-05-14T01:54:33.105Z,559.00
2023-05-14T01:55:33.089Z,575.20
2023-05-14T01:56:33.077Z,569.00
2023-05-14T01:57:33.080Z,568.20
2023-05-14T01:58:33.083Z,571.10
2023-05-14T01:59:33.050Z,564.40
2023-05-14T02:00:33.049Z,580.40
2023-05-14T02:01:33.093Z,589.80
2023-05-14T02:02:33.107Z,584.90
2023-05-14T02:03:33.058Z,577.80
2023-05-14T02:04:32.987Z,581.90
2023-05-14T02:05:32.973Z,585.20
2023-05-14T02:06:32.968Z,581.80
2023-05-14T02:07:32.992Z,570.10
2023-05-14T02:08:32.926Z,585.80
2023-05-14T02:09:32.924Z,588.40
2023-05-14T02:10:32.897Z,597.30
2023-05-14T02:11:32.900Z,600.80
2023-05-14T02:12:32.920Z,580.60
2023-05-14T02:13:32.880Z,588.40
2023-05-14T02:14:32.872Z,603.20
2023-05-14T02:15:32.891Z,623.00
2023-05-14T02:16:32.910Z,627.50
2023-05-14T02:17:32.940Z,628.00
2023-05-14T02:18:32.839Z,618.80
2023-05-14T02:19:32.816Z,598.50
2023-05-14T02:20:32.803Z,594.40
2023-05-14T02:21:32.826Z,591.00
2023-05-14T02:22:32.804Z,593.60
2023-05-14T02:23:41.001Z,596.20
2023-05-14T02:24:33.787Z,595.60
2023-05-14T02:25:32.746Z,595.70
2023-05-14T02:26:32.779Z,589.20
2023-05-14T02:27:32.724Z,586.80
2023-05-14T02:28:32.723Z,633.70
2023-05-14T02:29:32.710Z,645.60
2023-05-14T02:30:32.676Z,653.00
2023-05-14T02:31:32.779Z,642.60
2023-05-14T02:32:32.747Z,622.40
2023-05-14T02:33:32.711Z,609.50
2023-05-14T02:34:32.645Z,616.40
2023-05-14T02:35:32.675Z,620.00
2023-05-14T02:36:32.654Z,626.70
2023-05-14T02:37:32.605Z,633.80
2023-05-14T02:38:32.596Z,622.00
2023-05-14T02:39:32.600Z,627.20
2023-05-14T02:40:32.621Z,624.30
2023-05-14T02:41:32.567Z,614.40
2023-05-14T02:42:32.551Z,615.70
2023-05-14T02:43:32.550Z,613.50
2023-05-14T02:44:32.564Z,610.60
2023-05-14T02:45:32.566Z,607.40
2023-05-14T02:46:32.590Z,605.20
2023-05-14T02:47:32.857Z,615.80
2023-05-14T02:48:32.486Z,627.00
2023-05-14T02:49:32.504Z,624.20
2023-05-14T02:50:32.470Z,624.40
2023-05-14T02:51:32.473Z,624.30
2023-05-14T02:52:32.433Z,624.10
2023-05-14T02:53:32.435Z,619.90
2023-05-14T02:54:32.487Z,626.60
2023-05-14T02:55:32.435Z,634.10
2023-05-14T02:56:32.395Z,628.40
2023-05-14T02:57:32.384Z,625.50
2023-05-14T02:58:32.421Z,626.90
2023-05-14T02:59:32.403Z,636.70
2023-05-14T03:00:32.422Z,632.90
2023-05-14T03:01:32.350Z,643.80
2023-05-14T03:02:32.385Z,637.20
2023-05-14T03:03:32.366Z,639.20
2023-05-14T03:04:32.304Z,635.10
2023-05-14T03:05:32.321Z,634.40
2023-05-14T03:06:32.298Z,639.00
2023-05-14T03:07:32.280Z,646.00
2023-05-14T03:08:32.303Z,645.00
2023-05-14T03:09:32.256Z,650.30
2023-05-14T03:10:32.242Z,647.80
2023-05-14T03:11:32.243Z,648.60
2023-05-14T03:12:32.254Z,646.70
2023-05-14T03:13:32.249Z,653.60
2023-05-14T03:14:32.179Z,648.00
2023-05-14T03:15:32.177Z,653.70
2023-05-14T03:16:32.232Z,644.90
2023-05-14T03:17:32.232Z,631.10
2023-05-14T03:18:32.169Z,641.60
2023-05-14T03:19:32.139Z,618.80
2023-05-14T03:20:32.127Z,625.40
2023-05-14T03:21:32.122Z,620.40
2023-05-14T03:22:32.140Z,632.70
2023-05-14T03:23:32.127Z,642.10
2023-05-14T03:24:32.092Z,666.50
2023-05-14T03:25:32.097Z,631.80
2023-05-14T03:26:32.093Z,620.50
2023-05-14T03:27:32.099Z,607.50
2023-05-14T03:28:32.060Z,600.20
2023-05-14T03:29:32.036Z,573.10
2023-05-14T03:30:32.093Z,583.10
2023-05-14T03:31:32.046Z,589.60
2023-05-14T03:32:32.021Z,594.40
2023-05-14T03:33:31.976Z,576.10
2023-05-14T03:34:31.984Z,573.60
2023-05-14T03:35:31.961Z,581.10
2023-05-14T03:36:31.989Z,574.60
2023-05-14T03:37:31.939Z,586.40
2023-05-14T03:38:31.945Z,589.00
2023-05-14T03:39:31.925Z,597.60
2023-05-14T03:40:31.928Z,648.50
2023-05-14T03:41:31.935Z,646.10
2023-05-14T03:42:31.869Z,602.10
2023-05-14T03:43:31.878Z,613.90
2023-05-14T03:44:31.869Z,609.20
2023-05-14T03:45:31.869Z,610.80
2023-05-14T03:46:31.825Z,615.00
2023-05-14T03:47:31.850Z,617.90
2023-05-14T03:48:31.867Z,617.50
2023-05-14T03:49:31.818Z,618.80
2023-05-14T03:50:31.828Z,625.60
2023-05-14T03:51:31.780Z,619.50
2023-05-14T03:52:31.764Z,623.50
2023-05-14T03:53:31.759Z,616.70
2023-05-14T03:54:31.742Z,616.30
2023-05-14T03:55:31.767Z,613.40
2023-05-14T03:56:31.735Z,611.70
2023-05-14T03:57:31.712Z,605.40
2023-05-14T03:58:31.717Z,586.90
2023-05-14T03:59:31.721Z,568.30
2023-05-14T04:00:31.710Z,557.30
2023-05-14T04:01:31.660Z,549.70
2023-05-14T04:02:31.697Z,552.20
2023-05-14T04:03:32.061Z,531.20
2023-05-14T04:04:31.838Z,539.10
2023-05-14T04:05:31.635Z,534.20
2023-05-14T04:06:31.616Z,537.50
2023-05-14T04:07:31.596Z,540.80
2023-05-14T04:08:31.598Z,558.40
2023-05-14T04:09:31.623Z,574.10
2023-05-14T04:10:31.578Z,586.90
2023-05-14T04:11:31.563Z,599.60
2023-05-14T04:12:31.554Z,606.80
2023-05-14T04:13:31.563Z,611.00
2023-05-14T04:14:31.551Z,612.10
2023-05-14T04:15:31.504Z,614.20
2023-05-14T04:16:31.524Z,609.00
2023-05-14T04:17:31.481Z,604.70
2023-05-14T04:18:31.519Z,604.00
2023-05-14T04:19:31.490Z,603.20
2023-05-14T04:20:31.458Z,580.10
2023-05-14T04:21:31.461Z,599.60
2023-05-14T04:22:31.443Z,612.40
2023-05-14T04:23:31.453Z,611.40
2023-05-14T04:24:31.422Z,618.20
2023-05-14T04:25:31.427Z,583.60
2023-05-14T04:26:31.388Z,582.10
2023-05-14T04:27:31.418Z,321.50
2023-05-14T04:28:31.380Z,182.30
2023-05-14T04:29:31.360Z,211.40
2023-05-14T04:30:31.348Z,234.60
2023-05-14T04:31:31.332Z,277.60
2023-05-14T04:32:31.458Z,387.70
2023-05-14T04:33:31.315Z,291.00
2023-05-14T04:34:31.312Z,546.90
2023-05-14T04:35:31.297Z,464.30
2023-05-14T04:36:31.256Z,491.10
2023-05-14T04:37:31.300Z,481.20
2023-05-14T04:38:31.239Z,254.20
2023-05-14T04:39:31.259Z,276.50
2023-05-14T04:40:31.237Z,292.60
2023-05-14T04:41:31.270Z,304.50
2023-05-14T04:42:31.271Z,432.00
2023-05-14T04:43:31.239Z,243.10
2023-05-14T04:44:31.198Z,289.10
2023-05-14T04:45:32.847Z,308.00
2023-05-14T04:46:31.286Z,311.70
2023-05-14T04:47:31.152Z,318.60
2023-05-14T04:48:31.145Z,303.60
2023-05-14T04:49:31.135Z,346.00
2023-05-14T04:50:31.138Z,444.70
2023-05-14T04:51:31.146Z,405.20
2023-05-14T04:52:31.086Z,339.30
2023-05-14T04:53:31.089Z,268.30
2023-05-14T04:54:31.126Z,326.20
2023-05-14T04:55:31.096Z,324.90
2023-05-14T04:56:31.069Z,366.10
2023-05-14T04:57:31.037Z,349.60
2023-05-14T04:58:32.147Z,322.50
2023-05-14T04:59:31.024Z,367.30
2023-05-14T05:00:31.026Z,372.40
2023-05-14T05:01:31.111Z,369.10
2023-05-14T05:02:31.013Z,311.40
2023-05-14T05:03:30.973Z,298.10
2023-05-14T05:04:30.965Z,259.90
2023-05-14T05:05:31.116Z,294.80
2023-05-14T05:06:30.934Z,297.80
2023-05-14T05:07:30.929Z,279.30
2023-05-14T05:08:30.912Z,252.80
2023-05-14T05:09:30.904Z,281.90
2023-05-14T05:10:30.908Z,255.80
2023-05-14T05:11:30.903Z,211.50
2023-05-14T05:12:30.872Z,216.10
2023-05-14T05:13:30.857Z,259.70
2023-05-14T05:14:30.838Z,250.30
2023-05-14T05:15:30.858Z,236.80
2023-05-14T05:16:30.911Z,213.90
2023-05-14T05:17:30.873Z,245.70
2023-05-14T05:18:30.865Z,277.60
2023-05-14T05:19:42.264Z,301.30
2023-05-14T05:20:31.810Z,291.00
2023-05-14T05:21:30.775Z,280.90
2023-05-14T05:22:30.770Z,296.40
2023-05-14T05:23:30.758Z,279.00
2023-05-14T05:24:30.785Z,292.60
2023-05-14T05:25:30.741Z,289.70
2023-05-14T05:26:30.710Z,363.70
2023-05-14T05:27:30.695Z,231.40
2023-05-14T05:28:30.708Z,313.60
2023-05-14T05:29:30.718Z,291.50
2023-05-14T05:30:30.679Z,329.60
2023-05-14T05:31:30.674Z,332.90
2023-05-14T05:32:30.720Z,309.40
2023-05-14T05:33:30.674Z,318.20
2023-05-14T05:34:30.668Z,218.50
2023-05-14T05:35:30.630Z,243.00
2023-05-14T05:36:30.597Z,231.10
2023-05-14T05:37:30.605Z,194.70
2023-05-14T05:38:30.612Z,168.00
2023-05-14T05:39:30.583Z,140.10
2023-05-14T05:40:30.537Z,151.90
2023-05-14T05:41:30.559Z,262.90
2023-05-14T05:42:30.505Z,92.40
2023-05-14T05:43:30.551Z,91.60
2023-05-14T05:44:30.498Z,99.40
2023-05-14T05:45:30.501Z,105.50
2023-05-14T05:46:30.515Z,89.60
2023-05-14T05:47:30.570Z,148.40
2023-05-14T05:48:30.502Z,151.70
2023-05-14T05:49:30.455Z,133.70
2023-05-14T05:50:30.434Z,116.40
2023-05-14T05:51:30.451Z,102.00
2023-05-14T05:52:30.446Z,97.80
2023-05-14T05:53:30.411Z,98.10
2023-05-14T05:54:30.406Z,97.10
2023-05-14T05:55:30.396Z,95.50
2023-05-14T05:56:30.367Z,88.10
2023-05-14T05:57:30.395Z,77.10
2023-05-14T05:58:30.379Z,68.30
2023-05-14T05:59:30.329Z,85.70
2023-05-14T06:00:30.326Z,130.50
2023-05-14T06:01:30.314Z,72.40
2023-05-14T06:02:30.458Z,70.80
2023-05-14T06:03:30.285Z,81.80
2023-05-14T06:04:30.304Z,101.10
2023-05-14T06:05:30.290Z,160.20
2023-05-14T06:06:30.246Z,139.20
2023-05-14T06:07:30.274Z,159.10
2023-05-14T06:08:30.250Z,153.50
2023-05-14T06:09:30.216Z,180.50
2023-05-14T06:10:30.217Z,165.30
2023-05-14T06:11:30.223Z,124.70
2023-05-14T06:12:30.231Z,123.40
2023-05-14T06:13:30.163Z,55.40
2023-05-14T06:14:30.157Z,68.90
2023-05-14T06:15:30.147Z,54.70
2023-05-14T06:16:30.218Z,63.30
2023-05-14T06:17:30.145Z,57.90
2023-05-14T06:18:30.227Z,106.10
2023-05-14T06:19:30.111Z,90.30
2023-05-14T06:20:30.103Z,60.60
2023-05-14T06:21:30.132Z,53.20
2023-05-14T06:22:30.073Z,70.20
2023-05-14T06:23:30.062Z,75.10
2023-05-14T06:24:30.052Z,79.40
2023-05-14T06:25:30.067Z,85.70
2023-05-14T06:26:30.102Z,78.80
2023-05-14T06:27:30.004Z,154.20
2023-05-14T06:28:30.008Z,132.60
2023-05-14T06:29:29.988Z,39.40
2023-05-14T06:30:30.009Z,46.30
2023-05-14T06:31:30.011Z,47.90
2023-05-14T06:32:29.997Z,47.80
2023-05-14T06:33:29.945Z,43.30
2023-05-14T06:34:29.964Z,72.00
2023-05-14T06:35:29.950Z,91.30
2023-05-14T06:36:29.929Z,33.60
2023-05-14T06:37:29.902Z,38.30
2023-05-14T06:38:29.897Z,35.50
2023-05-14T06:39:29.924Z,33.10
2023-05-14T06:40:29.919Z,182.70
2023-05-14T06:41:29.863Z,74.30
2023-05-14T06:42:29.853Z,31.60
2023-05-14T06:43:29.823Z,26.80
2023-05-14T06:44:29.883Z,31.80
2023-05-14T06:45:31.218Z,38.10
2023-05-14T06:46:29.820Z,28.70
2023-05-14T06:47:29.845Z,30.00
2023-05-14T06:48:29.952Z,223.10
2023-05-14T06:49:29.822Z,37.60
2023-05-14T06:50:29.757Z,28.70
2023-05-14T06:51:29.748Z,31.00
2023-05-14T06:52:29.744Z,38.40
2023-05-14T06:53:29.723Z,41.50
2023-05-14T06:54:29.769Z,47.50
2023-05-14T06:55:29.732Z,46.80
2023-05-14T06:56:29.691Z,49.00
2023-05-14T06:57:29.698Z,218.40
2023-05-14T06:58:29.744Z,53.60
2023-05-14T06:59:29.703Z,35.30
2023-05-14T07:00:29.667Z,34.90
2023-05-14T07:01:29.702Z,36.80
2023-05-14T07:02:29.685Z,40.40
2023-05-14T07:03:29.636Z,45.00
2023-05-14T07:04:29.654Z,48.50
2023-05-14T07:05:29.597Z,43.20
2023-05-14T07:06:29.598Z,43.40
2023-05-14T07:07:29.577Z,40.60
2023-05-14T07:08:29.586Z,30.60
2023-05-14T07:09:29.570Z,33.90
2023-05-14T07:10:29.532Z,31.10
2023-05-14T07:11:29.545Z,29.10
2023-05-14T07:12:29.575Z,31.30
2023-05-14T07:13:29.583Z,36.00
2023-05-14T07:14:29.472Z,41.20
2023-05-14T07:15:29.477Z,32.80
2023-05-14T07:16:29.476Z,35.50
2023-05-14T07:17:29.665Z,33.70
2023-05-14T07:18:29.454Z,31.10
2023-05-14T07:19:29.444Z,26.10
2023-05-14T07:20:29.460Z,24.40
2023-05-14T07:21:29.418Z,21.50
2023-05-14T07:22:29.434Z,23.70
2023-05-14T07:23:29.390Z,22.00
2023-05-14T07:24:29.401Z,24.60
2023-05-14T07:25:29.365Z,22.60
2023-05-14T07:26:29.399Z,21.40
2023-05-14T07:27:29.380Z,22.90
2023-05-14T07:28:29.327Z,27.80
2023-05-14T07:29:29.366Z,62.70
2023-05-14T07:30:29.317Z,59.50
2023-05-14T07:31:29.409Z,62.00
2023-05-14T07:32:29.335Z,24.40
2023-05-14T07:33:29.285Z,22.10
2023-05-14T07:34:29.267Z,30.30
2023-05-14T07:35:29.245Z,27.20
2023-05-14T07:36:29.273Z,71.30
2023-05-14T07:37:29.230Z,66.90
2023-05-14T07:38:29.210Z,84.40
2023-05-14T07:39:29.198Z,150.30
2023-05-14T07:40:29.250Z,163.10
2023-05-14T07:41:29.224Z,127.90
2023-05-14T07:42:36.386Z,117.00
2023-05-14T07:43:30.155Z,167.50
2023-05-14T07:44:29.188Z,180.30
2023-05-14T07:45:29.188Z,127.80
2023-05-14T07:46:29.153Z,158.90
2023-05-14T07:47:29.224Z,72.40
2023-05-14T07:48:29.216Z,77.30
2023-05-14T07:49:29.112Z,65.60
2023-05-14T07:50:29.153Z,68.10
2023-05-14T07:51:29.067Z,61.10
2023-05-14T07:52:29.060Z,165.70
2023-05-14T07:53:29.051Z,38.00
2023-05-14T07:54:29.092Z,74.60
2023-05-14T07:55:29.060Z,207.70
2023-05-14T07:56:29.040Z,113.30
2023-05-14T07:57:29.020Z,47.10
2023-05-14T07:58:29.045Z,32.40
2023-05-14T07:59:29.025Z,45.60
2023-05-14T08:00:28.980Z,39.90
2023-05-14T08:01:28.966Z,29.90
2023-05-14T08:02:29.023Z,28.60
2023-05-14T08:03:29.118Z,41.40
2023-05-14T08:04:29.116Z,36.80
2023-05-14T08:05:28.936Z,43.80
2023-05-14T08:06:28.913Z,45.90
2023-05-14T08:07:28.899Z,55.60
2023-05-14T08:08:28.887Z,39.80
2023-05-14T08:09:28.896Z,42.00
2023-05-14T08:10:29.269Z,50.00
2023-05-14T08:11:28.833Z,55.50
2023-05-14T08:12:28.848Z,57.20
2023-05-14T08:13:28.874Z,54.60
2023-05-14T08:14:28.905Z,49.30
2023-05-14T08:15:28.837Z,57.20
2023-05-14T08:16:28.855Z,35.40
2023-05-14T08:17:28.800Z,26.20
2023-05-14T08:18:28.836Z,23.60
2023-05-14T08:19:28.802Z,25.70
2023-05-14T08:20:28.867Z,24.10
2023-05-14T08:21:28.795Z,25.10
2023-05-14T08:22:28.757Z,23.30
2023-05-14T08:23:28.752Z,24.50
2023-05-14T08:24:28.760Z,30.10
2023-05-14T08:25:28.758Z,27.40
2023-05-14T08:26:28.794Z,29.00
2023-05-14T08:27:28.749Z,22.90
2023-05-14T08:28:28.770Z,24.10
2023-05-14T08:29:28.692Z,23.40
2023-05-14T08:30:28.758Z,26.60
2023-05-14T08:31:28.672Z,30.20
2023-05-14T08:32:28.775Z,27.60
2023-05-14T08:33:28.624Z,24.80
2023-05-14T08:34:28.671Z,19.90
2023-05-14T08:35:28.634Z,20.10
2023-05-14T08:36:28.661Z,19.00
2023-05-14T08:37:28.656Z,29.60
2023-05-14T08:38:28.684Z,34.70
2023-05-14T08:39:28.574Z,37.60
2023-05-14T08:40:28.736Z,50.70
2023-05-14T08:41:28.593Z,23.20
2023-05-14T08:42:28.761Z,22.30
2023-05-14T08:43:28.748Z,21.40
2023-05-14T08:44:28.636Z,21.60
2023-05-14T08:45:28.532Z,19.30
2023-05-14T08:46:28.633Z,18.20
2023-05-14T08:47:28.540Z,24.40
2023-05-14T08:48:28.594Z,25.50
2023-05-14T08:49:28.455Z,25.90
2023-05-14T08:50:28.830Z,29.40
2023-05-14T08:51:28.549Z,29.00
2023-05-14T08:52:28.421Z,30.20
2023-05-14T08:53:28.491Z,64.70
2023-05-14T08:54:28.464Z,88.60
2023-05-14T08:55:28.507Z,89.20
2023-05-14T08:56:28.448Z,73.90
2023-05-14T08:57:28.436Z,76.20
2023-05-14T08:58:28.408Z,56.50
2023-05-14T08:59:28.359Z,41.70
2023-05-14T09:00:28.478Z,46.70
2023-05-14T09:01:28.396Z,31.80
2023-05-14T09:02:28.419Z,25.90
2023-05-14T09:03:28.344Z,27.90
2023-05-14T09:04:28.361Z,27.00
2023-05-14T09:05:28.365Z,23.30
2023-05-14T09:06:28.295Z,22.80
2023-05-14T09:07:28.270Z,34.80
2023-05-14T09:08:28.252Z,28.10
2023-05-14T09:09:28.232Z,27.80
2023-05-14T09:10:28.303Z,26.80
2023-05-14T09:11:28.455Z,25.90
2023-05-14T09:12:28.230Z,25.70
2023-05-14T09:13:28.469Z,25.90
2023-05-14T09:14:28.353Z,24.20
2023-05-14T09:15:28.248Z,29.60
2023-05-14T09:16:28.273Z,26.40
2023-05-14T09:17:28.223Z,25.10
2023-05-14T09:18:28.327Z,25.90
2023-05-14T09:19:28.202Z,27.50
2023-05-14T09:20:28.687Z,27.00
2023-05-14T09:21:28.123Z,35.10
2023-05-14T09:22:28.139Z,22.80
2023-05-14T09:23:28.152Z,33.40
2023-05-14T09:24:28.142Z,22.50
2023-05-14T09:25:28.071Z,24.10
2023-05-14T09:26:28.111Z,26.30
2023-05-14T09:27:28.063Z,37.70
2023-05-14T09:28:28.128Z,43.60
2023-05-14T09:29:28.120Z,44.10
2023-05-14T09:30:28.052Z,35.40
2023-05-14T09:31:28.049Z,39.40
2023-05-14T09:32:28.033Z,36.40
2023-05-14T09:33:28.067Z,36.10
2023-05-14T09:34:28.032Z,39.40
2023-05-14T09:35:27.991Z,43.20
2023-05-14T09:36:27.968Z,47.50
2023-05-14T09:37:27.987Z,46.40
2023-05-14T09:38:27.973Z,41.00
2023-05-14T09:39:27.962Z,49.50
2023-05-14T09:40:28.241Z,58.20
2023-05-14T09:41:27.907Z,66.30
2023-05-14T09:42:28.019Z,45.00
2023-05-14T09:43:28.052Z,47.50
2023-05-14T09:44:27.947Z,36.30
2023-05-14T09:45:27.906Z,36.10
2023-05-14T09:46:27.850Z,34.90
2023-05-14T09:47:27.976Z,37.90
2023-05-14T09:48:27.913Z,45.10
2023-05-14T09:49:27.826Z,31.10
2023-05-14T09:50:27.816Z,39.20
2023-05-14T09:51:27.865Z,35.80
2023-05-14T09:52:27.850Z,45.50
2023-05-14T09:53:27.795Z,54.10
2023-05-14T09:54:27.818Z,43.90
2023-05-14T09:55:27.816Z,52.80
2023-05-14T09:56:27.739Z,49.90
2023-05-14T09:57:27.783Z,40.80
2023-05-14T09:58:27.764Z,30.00
2023-05-14T09:59:27.739Z,30.10
2023-05-14T10:00:27.707Z,26.30
2023-05-14T10:01:27.755Z,32.40
2023-05-14T10:02:27.770Z,35.50
2023-05-14T10:03:27.753Z,44.90
2023-05-14T10:04:27.739Z,49.60
2023-05-14T10:05:27.693Z,53.60
2023-05-14T10:06:27.707Z,71.70
2023-05-14T10:07:27.632Z,68.00
2023-05-14T10:08:27.647Z,109.90
2023-05-14T10:09:27.620Z,105.20
2023-05-14T10:10:27.996Z,62.20
2023-05-14T10:11:27.616Z,69.80
2023-05-14T10:12:27.612Z,94.90
2023-05-14T10:13:27.596Z,90.70
2023-05-14T10:14:27.555Z,96.40
2023-05-14T10:15:27.607Z,83.50
2023-05-14T10:16:27.624Z,23.30
2023-05-14T10:17:27.594Z,22.90
2023-05-14T10:18:27.709Z,25.20
2023-05-14T10:19:27.569Z,22.90
2023-05-14T10:20:27.534Z,24.10
2023-05-14T10:21:27.494Z,22.60
2023-05-14T10:22:27.541Z,22.90
2023-05-14T10:23:27.492Z,24.80
2023-05-14T10:24:27.437Z,31.60
2023-05-14T10:25:27.469Z,29.70
2023-05-14T10:26:27.424Z,32.20
2023-05-14T10:27:27.415Z,30.60
2023-05-14T10:28:27.387Z,23.00
2023-05-14T10:29:27.430Z,22.90
2023-05-14T10:30:27.600Z,31.80
2023-05-14T10:31:27.438Z,56.20
2023-05-14T10:32:27.359Z,50.80
2023-05-14T10:33:27.366Z,67.10
2023-05-14T10:34:27.401Z,131.90
2023-05-14T10:35:27.304Z,115.00
2023-05-14T10:36:27.316Z,58.80
2023-05-14T10:37:27.314Z,30.00
2023-05-14T10:38:27.324Z,31.90
2023-05-14T10:39:27.327Z,34.20
2023-05-14T10:40:27.399Z,55.00
2023-05-14T10:41:27.261Z,60.20
2023-05-14T10:42:27.251Z,68.90
2023-05-14T10:43:27.248Z,58.50
2023-05-14T10:44:27.260Z,59.30
2023-05-14T10:45:27.225Z,28.70
2023-05-14T10:46:27.249Z,28.60
2023-05-14T10:47:27.186Z,24.20
2023-05-14T10:48:27.197Z,42.40
2023-05-14T10:49:42.317Z,37.30
2023-05-14T10:50:28.175Z,25.50
2023-05-14T10:51:27.181Z,21.80
2023-05-14T10:52:27.157Z,24.40
2023-05-14T10:53:27.176Z,21.70
2023-05-14T10:54:27.159Z,21.70
2023-05-14T10:55:27.095Z,23.90
2023-05-14T10:56:27.121Z,21.40
2023-05-14T10:57:27.099Z,20.70
2023-05-14T10:58:27.105Z,18.90
2023-05-14T10:59:27.070Z,18.30
2023-05-14T11:00:27.059Z,19.90
2023-05-14T11:01:27.086Z,19.00
2023-05-14T11:02:27.109Z,17.40
2023-05-14T11:03:27.093Z,17.20
2023-05-14T11:04:27.036Z,18.70
2023-05-14T11:05:27.022Z,17.10
2023-05-14T11:06:26.993Z,17.80
2023-05-14T11:07:27.034Z,18.60
2023-05-14T11:08:28.087Z,18.80
2023-05-14T11:09:26.992Z,19.70
2023-05-14T11:10:27.066Z,27.50
2023-05-14T11:11:26.949Z,40.10
2023-05-14T11:12:27.003Z,32.40
2023-05-14T11:13:26.966Z,23.90
2023-05-14T11:14:26.886Z,26.50
2023-05-14T11:15:26.915Z,28.90
2023-05-14T11:16:26.917Z,29.50
2023-05-14T11:17:26.941Z,39.70
2023-05-14T11:18:26.910Z,49.60
2023-05-14T11:19:26.867Z,48.70
2023-05-14T11:20:27.059Z,38.70
2023-05-14T11:21:26.948Z,31.80
2023-05-14T11:22:26.867Z,28.20
2023-05-14T11:23:26.862Z,25.30
2023-05-14T11:24:26.843Z,27.20
2023-05-14T11:25:26.803Z,27.80
2023-05-14T11:26:26.853Z,28.00
2023-05-14T11:27:26.776Z,30.70
2023-05-14T11:28:26.786Z,31.50
2023-05-14T11:29:26.758Z,26.10
2023-05-14T11:30:26.742Z,32.10
2023-05-14T11:31:26.822Z,49.50
2023-05-14T11:32:26.739Z,26.10
2023-05-14T11:33:26.726Z,18.90
2023-05-14T11:34:26.712Z,22.30
2023-05-14T11:35:26.745Z,51.70
2023-05-14T11:36:26.691Z,54.70
2023-05-14T11:37:26.653Z,50.30
2023-05-14T11:38:26.675Z,40.10
2023-05-14T11:39:26.666Z,39.70
2023-05-14T11:40:26.772Z,38.30
2023-05-14T11:41:26.636Z,50.20
2023-05-14T11:42:26.614Z,38.50
2023-05-14T11:43:26.622Z,37.50
2023-05-14T11:44:26.597Z,57.60
2023-05-14T11:45:26.630Z,57.70
2023-05-14T11:46:26.615Z,56.50
2023-05-14T11:47:26.630Z,31.50
2023-05-14T11:48:26.564Z,44.70
2023-05-14T11:49:26.614Z,50.70
2023-05-14T11:50:26.826Z,66.50
2023-05-14T11:51:26.552Z,68.00
2023-05-14T11:52:26.527Z,37.60
2023-05-14T11:53:26.508Z,50.10
2023-05-14T11:54:26.546Z,40.60
2023-05-14T11:55:26.483Z,40.70
2023-05-14T11:56:26.480Z,63.40
2023-05-14T11:57:26.446Z,102.90
2023-05-14T11:58:26.459Z,34.80
2023-05-14T11:59:26.439Z,58.30
2023-05-14T12:00:26.503Z,34.40
2023-05-14T12:01:26.453Z,49.30
2023-05-14T12:02:26.496Z,44.20
2023-05-14T12:03:26.806Z,47.70
2023-05-14T12:04:26.406Z,23.20
2023-05-14T12:05:26.356Z,30.90
2023-05-14T12:06:26.338Z,34.90
2023-05-14T12:07:26.344Z,45.80
2023-05-14T12:08:26.391Z,69.50
2023-05-14T12:09:26.401Z,45.20
2023-05-14T12:10:26.612Z,67.80
2023-05-14T12:11:26.305Z,33.70
2023-05-14T12:12:26.341Z,40.10
2023-05-14T12:13:26.353Z,47.00
2023-05-14T12:14:26.279Z,53.10
2023-05-14T12:15:26.282Z,46.60
2023-05-14T12:16:26.281Z,68.70
2023-05-14T12:17:26.343Z,29.90
2023-05-14T12:18:26.347Z,70.10
2023-05-14T12:19:26.360Z,50.70
2023-05-14T12:20:26.324Z,60.20
2023-05-14T12:21:26.187Z,70.80
2023-05-14T12:22:26.229Z,25.70
2023-05-14T12:23:26.216Z,40.90
2023-05-14T12:24:26.167Z,49.30
2023-05-14T12:25:26.155Z,47.20
2023-05-14T12:26:26.142Z,38.00
2023-05-14T12:27:26.221Z,39.50
2023-05-14T12:28:26.129Z,59.60
2023-05-14T12:29:26.111Z,36.90
2023-05-14T12:30:26.098Z,41.70
2023-05-14T12:31:26.116Z,42.10
2023-05-14T12:32:26.101Z,56.50
2023-05-14T12:33:26.072Z,52.00
2023-05-14T12:34:26.033Z,54.30
2023-05-14T12:35:26.182Z,81.10
2023-05-14T12:36:26.059Z,85.80
2023-05-14T12:37:26.059Z,83.50
2023-05-14T12:38:26.010Z,93.10
2023-05-14T12:39:25.988Z,88.50
2023-05-14T12:40:26.232Z,92.50